Archival Weather

Half Moon Bay

Half Moon Bay, California (KHAF)

Report from: Thursday, September 21, 2023 9:15 PM PDT
Current time: Sunday, July 14, 2024 4:43 AM PDT

Current weather – Weather history – Daily summaries
Weather forecast

Present weatherMist
Temperature16.0°C (60.8°F)
Dew point13.0°C (55.4°F)
Winds 9 kts (4.6 m/s, 10.4 mph) South (190°)
Visibility4 mi. (6.4 km)
Clouds Ceiling: Overcast 1,900 ft. (579 m)
Altimeter29.94 in.Hg (1014 mB)
Relative humidity82 %
Density altitude305 ft. (93 m)
Remarks Fully automated report
Automated weather observing station with precipitation discriminator
Flight conditions Marginal Visual Meteorological Conditions
Raw dataKHAF 220415Z AUTO 19009KT 4SM BR OVC019 16/13 A2994 RMK AO2
An error has occurred. This application may no longer respond until reloaded. Reload 🗙